sensor_id;sensor_type;location;lat;lon;timestamp;pressure;altitude;pressure_sealevel;temperature;humidity
49709;BME280;35601;55.902;13.606;2023-01-30T00:01:58;99038.17;;;0.49;100.00
49709;BME280;35601;55.902;13.606;2023-01-30T00:04:23;99039.38;;;0.74;100.00
49709;BME280;35601;55.902;13.606;2023-01-30T00:06:48;99027.36;;;0.97;100.00
49709;BME280;35601;55.902;13.606;2023-01-30T00:09:14;99022.21;;;0.58;99.94
49709;BME280;35601;55.902;13.606;2023-01-30T00:11:40;99015.93;;;0.69;99.65
49709;BME280;35601;55.902;13.606;2023-01-30T00:14:06;99005.59;;;0.71;99.46
49709;BME280;35601;55.902;13.606;2023-01-30T00:16:31;98995.10;;;0.77;99.40
49709;BME280;35601;55.902;13.606;2023-01-30T00:18:56;98988.92;;;0.80;99.16
49709;BME280;35601;55.902;13.606;2023-01-30T00:21:22;98978.91;;;0.76;99.47
49709;BME280;35601;55.902;13.606;2023-01-30T00:23:47;98976.55;;;0.89;98.99
49709;BME280;35601;55.902;13.606;2023-01-30T00:26:13;98973.20;;;0.93;98.77
49709;BME280;35601;55.902;13.606;2023-01-30T00:28:39;98963.54;;;1.13;97.84
49709;BME280;35601;55.902;13.606;2023-01-30T00:31:04;98960.51;;;1.04;98.08
49709;BME280;35601;55.902;13.606;2023-01-30T00:33:29;98944.20;;;0.93;98.62
49709;BME280;35601;55.902;13.606;2023-01-30T00:35:55;98940.82;;;0.69;99.17
49709;BME280;35601;55.902;13.606;2023-01-30T00:38:20;98929.68;;;0.91;99.03
49709;BME280;35601;55.902;13.606;2023-01-30T00:40:47;98931.96;;;0.75;100.00
49709;BME280;35601;55.902;13.606;2023-01-30T00:43:13;98927.61;;;0.95;99.12
49709;BME280;35601;55.902;13.606;2023-01-30T00:45:37;98918.51;;;0.90;98.48
49709;BME280;35601;55.902;13.606;2023-01-30T00:48:02;98919.61;;;0.92;99.22
49709;BME280;35601;55.902;13.606;2023-01-30T00:50:28;98908.76;;;1.05;98.99
49709;BME280;35601;55.902;13.606;2023-01-30T00:52:53;98912.16;;;0.74;100.00
49709;BME280;35601;55.902;13.606;2023-01-30T00:55:18;98907.77;;;0.86;100.00
49709;BME280;35601;55.902;13.606;2023-01-30T00:57:44;98904.04;;;1.02;99.54
49709;BME280;35601;55.902;13.606;2023-01-30T01:00:10;98903.56;;;1.05;99.37
49709;BME280;35601;55.902;13.606;2023-01-30T01:02:34;98894.05;;;1.17;99.09
49709;BME280;35601;55.902;13.606;2023-01-30T01:05:00;98880.49;;;1.21;98.86
49709;BME280;35601;55.902;13.606;2023-01-30T01:07:25;98883.42;;;1.39;98.09
49709;BME280;35601;55.902;13.606;2023-01-30T01:09:50;98878.11;;;1.19;97.84
49709;BME280;35601;55.902;13.606;2023-01-30T01:12:16;98872.52;;;1.07;98.38
49709;BME280;35601;55.902;13.606;2023-01-30T01:14:41;98868.21;;;1.37;98.28
49709;BME280;35601;55.902;13.606;2023-01-30T01:17:07;98873.61;;;1.16;98.10
49709;BME280;35601;55.902;13.606;2023-01-30T01:19:32;98866.11;;;1.37;97.39
49709;BME280;35601;55.902;13.606;2023-01-30T01:21:57;98868.41;;;1.82;96.55
49709;BME280;35601;55.902;13.606;2023-01-30T01:24:22;98865.13;;;1.58;96.61
49709;BME280;35601;55.902;13.606;2023-01-30T01:26:48;98865.83;;;1.37;96.44
49709;BME280;35601;55.902;13.606;2023-01-30T01:29:15;98853.76;;;1.29;96.92
49709;BME280;35601;55.902;13.606;2023-01-30T01:31:39;98853.53;;;1.59;97.75
49709;BME280;35601;55.902;13.606;2023-01-30T01:34:04;98852.26;;;1.43;97.46
49709;BME280;35601;55.902;13.606;2023-01-30T01:36:29;98856.19;;;1.43;97.76
49709;BME280;35601;55.902;13.606;2023-01-30T01:38:55;98855.19;;;1.37;98.27
49709;BME280;35601;55.902;13.606;2023-01-30T01:41:20;98848.04;;;1.51;97.77
49709;BME280;35601;55.902;13.606;2023-01-30T01:43:58;98849.89;;;1.45;98.01
49709;BME280;35601;55.902;13.606;2023-01-30T01:46:17;98852.51;;;1.66;97.96
49709;BME280;35601;55.902;13.606;2023-01-30T01:48:40;98844.29;;;1.51;99.15
49709;BME280;35601;55.902;13.606;2023-01-30T01:51:04;98852.44;;;1.26;99.95
49709;BME280;35601;55.902;13.606;2023-01-30T01:53:31;98855.41;;;1.21;99.94
49709;BME280;35601;55.902;13.606;2023-01-30T01:55:54;98851.95;;;1.39;98.98
49709;BME280;35601;55.902;13.606;2023-01-30T01:58:23;98859.49;;;1.49;98.81
49709;BME280;35601;55.902;13.606;2023-01-30T02:00:43;98864.97;;;1.44;97.30
49709;BME280;35601;55.902;13.606;2023-01-30T02:03:12;98876.18;;;1.79;96.22
49709;BME280;35601;55.902;13.606;2023-01-30T02:05:35;98851.12;;;1.50;94.28
49709;BME280;35601;55.902;13.606;2023-01-30T02:08:03;98841.47;;;1.49;92.02
49709;BME280;35601;55.902;13.606;2023-01-30T02:10:26;98816.28;;;1.77;91.09
49709;BME280;35601;55.902;13.606;2023-01-30T02:12:50;98821.76;;;1.52;90.20
49709;BME280;35601;55.902;13.606;2023-01-30T02:15:16;98811.82;;;1.65;88.84
49709;BME280;35601;55.902;13.606;2023-01-30T02:17:40;98809.91;;;1.66;87.32
49709;BME280;35601;55.902;13.606;2023-01-30T02:20:11;98812.29;;;1.67;86.76
49709;BME280;35601;55.902;13.606;2023-01-30T02:27:36;98809.08;;;1.86;85.34
49709;BME280;35601;55.902;13.606;2023-01-30T02:30:08;98800.31;;;1.89;84.90
49709;BME280;35601;55.902;13.606;2023-01-30T02:32:17;98807.27;;;1.40;84.57
49709;BME280;35601;55.902;13.606;2023-01-30T02:34:45;98798.79;;;1.63;84.11
49709;BME280;35601;55.902;13.606;2023-01-30T02:37:14;98793.09;;;1.52;83.93
49709;BME280;35601;55.902;13.606;2023-01-30T02:39:36;98788.22;;;1.57;83.65
49709;BME280;35601;55.902;13.606;2023-01-30T02:42:00;98782.79;;;1.66;83.48
49709;BME280;35601;55.902;13.606;2023-01-30T02:44:25;98787.23;;;1.58;83.63
49709;BME280;35601;55.902;13.606;2023-01-30T02:46:51;98777.48;;;1.78;83.73
49709;BME280;35601;55.902;13.606;2023-01-30T02:49:14;98773.29;;;0.37;83.76
49709;BME280;35601;55.902;13.606;2023-01-30T02:51:37;98768.98;;;1.43;83.39
49709;BME280;35601;55.902;13.606;2023-01-30T02:54:01;98760.48;;;1.59;83.45
49709;BME280;35601;55.902;13.606;2023-01-30T02:56:26;98763.31;;;1.57;83.27
49709;BME280;35601;55.902;13.606;2023-01-30T02:58:54;98759.53;;;1.48;83.53
49709;BME280;35601;55.902;13.606;2023-01-30T03:01:39;98760.95;;;1.62;83.47
49709;BME280;35601;55.902;13.606;2023-01-30T03:03:54;98755.83;;;1.28;83.38
49709;BME280;35601;55.902;13.606;2023-01-30T03:08:39;98753.39;;;1.32;83.57
49709;BME280;35601;55.902;13.606;2023-01-30T03:11:00;98752.94;;;1.52;83.16
49709;BME280;35601;55.902;13.606;2023-01-30T03:13:31;98753.42;;;1.22;83.19
49709;BME280;35601;55.902;13.606;2023-01-30T03:15:51;98754.58;;;1.40;83.47
49709;BME280;35601;55.902;13.606;2023-01-30T03:18:15;98753.55;;;1.32;84.32
49709;BME280;35601;55.902;13.606;2023-01-30T03:20:40;98752.73;;;1.15;85.35
49709;BME280;35601;55.902;13.606;2023-01-30T03:23:05;98748.37;;;1.15;85.31
49709;BME280;35601;55.902;13.606;2023-01-30T03:25:30;98747.49;;;1.00;85.65
49709;BME280;35601;55.902;13.606;2023-01-30T03:27:55;98747.91;;;1.34;85.30
49709;BME280;35601;55.902;13.606;2023-01-30T03:30:21;98757.42;;;0.99;85.16
49709;BME280;35601;55.902;13.606;2023-01-30T03:32:46;98755.31;;;1.16;85.62
49709;BME280;35601;55.902;13.606;2023-01-30T03:35:11;98756.39;;;0.90;85.58
49709;BME280;35601;55.902;13.606;2023-01-30T03:37:36;98754.41;;;0.94;85.40
49709;BME280;35601;55.902;13.606;2023-01-30T03:40:02;98758.76;;;0.94;85.82
49709;BME280;35601;55.902;13.606;2023-01-30T03:42:27;98754.20;;;0.82;86.45
49709;BME280;35601;55.902;13.606;2023-01-30T03:44:52;98745.14;;;1.01;87.02
49709;BME280;35601;55.902;13.606;2023-01-30T03:47:18;98745.94;;;0.95;88.19
49709;BME280;35601;55.902;13.606;2023-01-30T03:49:43;98746.08;;;0.98;88.11
49709;BME280;35601;55.902;13.606;2023-01-30T03:52:08;98749.00;;;1.02;88.23
49709;BME280;35601;55.902;13.606;2023-01-30T03:54:33;98751.82;;;1.01;88.16
49709;BME280;35601;55.902;13.606;2023-01-30T03:56:59;98753.90;;;0.99;88.25
49709;BME280;35601;55.902;13.606;2023-01-30T03:59:24;98755.95;;;0.70;87.76
49709;BME280;35601;55.902;13.606;2023-01-30T04:01:49;98754.64;;;1.00;87.95
49709;BME280;35601;55.902;13.606;2023-01-30T04:04:15;98750.41;;;0.73;87.90
49709;BME280;35601;55.902;13.606;2023-01-30T04:06:41;98749.35;;;0.62;87.44
49709;BME280;35601;55.902;13.606;2023-01-30T04:09:07;98745.18;;;1.03;87.59
49709;BME280;35601;55.902;13.606;2023-01-30T04:11:32;98742.67;;;0.77;86.88
49709;BME280;35601;55.902;13.606;2023-01-30T04:13:57;98749.67;;;1.24;86.71
49709;BME280;35601;55.902;13.606;2023-01-30T04:16:24;98746.92;;;0.83;87.03
49709;BME280;35601;55.902;13.606;2023-01-30T04:18:48;98738.95;;;0.69;86.44
49709;BME280;35601;55.902;13.606;2023-01-30T04:21:14;98732.09;;;0.92;86.13
49709;BME280;35601;55.902;13.606;2023-01-30T04:23:40;98734.43;;;1.00;85.50
49709;BME280;35601;55.902;13.606;2023-01-30T04:26:05;98735.41;;;1.07;85.80
49709;BME280;35601;55.902;13.606;2023-01-30T04:28:30;98732.68;;;1.16;84.94
49709;BME280;35601;55.902;13.606;2023-01-30T04:30:55;98730.37;;;0.87;85.30
49709;BME280;35601;55.902;13.606;2023-01-30T04:33:21;98731.23;;;0.85;85.39
49709;BME280;35601;55.902;13.606;2023-01-30T04:35:51;98726.43;;;0.88;85.11
49709;BME280;35601;55.902;13.606;2023-01-30T04:38:11;98724.13;;;0.92;85.14
49709;BME280;35601;55.902;13.606;2023-01-30T04:40:37;98721.65;;;0.74;85.67
49709;BME280;35601;55.902;13.606;2023-01-30T04:43:02;98716.77;;;1.10;85.36
49709;BME280;35601;55.902;13.606;2023-01-30T04:45:28;98716.29;;;1.00;85.81
49709;BME280;35601;55.902;13.606;2023-01-30T04:47:54;98718.03;;;0.58;85.44
49709;BME280;35601;55.902;13.606;2023-01-30T04:50:19;98717.96;;;0.98;85.65
49709;BME280;35601;55.902;13.606;2023-01-30T04:52:45;98714.09;;;0.72;85.95
49709;BME280;35601;55.902;13.606;2023-01-30T04:55:11;98712.13;;;0.77;85.84
49709;BME280;35601;55.902;13.606;2023-01-30T04:57:36;98712.88;;;0.68;85.94
49709;BME280;35601;55.902;13.606;2023-01-30T05:00:03;98715.41;;;0.89;86.40
49709;BME280;35601;55.902;13.606;2023-01-30T05:02:27;98708.71;;;1.05;85.91
49709;BME280;35601;55.902;13.606;2023-01-30T05:04:53;98715.27;;;1.00;85.97
49709;BME280;35601;55.902;13.606;2023-01-30T05:07:18;98714.14;;;0.74;86.02
49709;BME280;35601;55.902;13.606;2023-01-30T05:09:43;98713.14;;;0.98;85.33
49709;BME280;35601;55.902;13.606;2023-01-30T05:12:09;98706.16;;;0.92;84.64
49709;BME280;35601;55.902;13.606;2023-01-30T05:14:35;98713.97;;;0.98;84.32
49709;BME280;35601;55.902;13.606;2023-01-30T05:17:00;98706.28;;;0.90;85.57
49709;BME280;35601;55.902;13.606;2023-01-30T05:19:25;98709.56;;;1.05;85.56
49709;BME280;35601;55.902;13.606;2023-01-30T05:21:51;98704.79;;;1.06;84.89
49709;BME280;35601;55.902;13.606;2023-01-30T05:24:17;98694.17;;;1.05;84.98
49709;BME280;35601;55.902;13.606;2023-01-30T05:26:41;98695.22;;;0.59;84.17
49709;BME280;35601;55.902;13.606;2023-01-30T05:29:08;98689.16;;;1.17;83.60
49709;BME280;35601;55.902;13.606;2023-01-30T05:31:32;98690.04;;;1.07;83.66
49709;BME280;35601;55.902;13.606;2023-01-30T05:33:58;98688.25;;;1.02;83.58
49709;BME280;35601;55.902;13.606;2023-01-30T05:36:23;98685.90;;;0.97;83.72
49709;BME280;35601;55.902;13.606;2023-01-30T05:38:48;98683.32;;;1.34;84.19
49709;BME280;35601;55.902;13.606;2023-01-30T05:41:15;98685.15;;;1.14;84.07
49709;BME280;35601;55.902;13.606;2023-01-30T05:43:39;98691.86;;;0.90;84.07
49709;BME280;35601;55.902;13.606;2023-01-30T05:46:06;98686.64;;;0.88;84.01
49709;BME280;35601;55.902;13.606;2023-01-30T05:48:31;98696.23;;;0.94;83.69
49709;BME280;35601;55.902;13.606;2023-01-30T05:50:58;98703.71;;;0.78;83.94
49709;BME280;35601;55.902;13.606;2023-01-30T05:53:23;98700.60;;;0.72;84.51
49709;BME280;35601;55.902;13.606;2023-01-30T05:55:53;98691.91;;;0.81;83.61
49709;BME280;35601;55.902;13.606;2023-01-30T05:58:12;98693.40;;;0.46;84.15
49709;BME280;35601;55.902;13.606;2023-01-30T06:00:38;98687.19;;;0.87;83.55
49709;BME280;35601;55.902;13.606;2023-01-30T06:03:03;98688.12;;;0.74;83.86
49709;BME280;35601;55.902;13.606;2023-01-30T06:05:28;98688.08;;;0.92;83.70
49709;BME280;35601;55.902;13.606;2023-01-30T06:07:54;98693.82;;;0.92;83.22
49709;BME280;35601;55.902;13.606;2023-01-30T06:10:19;98691.88;;;0.46;83.13
49709;BME280;35601;55.902;13.606;2023-01-30T06:12:44;98697.70;;;0.57;83.30
49709;BME280;35601;55.902;13.606;2023-01-30T06:15:10;98696.55;;;0.65;83.13
49709;BME280;35601;55.902;13.606;2023-01-30T06:17:35;98694.00;;;0.78;82.79
49709;BME280;35601;55.902;13.606;2023-01-30T06:20:00;98696.26;;;0.89;81.91
49709;BME280;35601;55.902;13.606;2023-01-30T06:22:25;98704.62;;;0.83;81.50
49709;BME280;35601;55.902;13.606;2023-01-30T06:24:51;98692.41;;;0.83;81.01
49709;BME280;35601;55.902;13.606;2023-01-30T06:27:16;98700.82;;;0.94;80.99
49709;BME280;35601;55.902;13.606;2023-01-30T06:29:41;98703.27;;;0.78;80.92
49709;BME280;35601;55.902;13.606;2023-01-30T06:32:06;98696.36;;;0.85;80.69
49709;BME280;35601;55.902;13.606;2023-01-30T06:34:32;98696.47;;;0.56;80.88
49709;BME280;35601;55.902;13.606;2023-01-30T06:36:57;98699.54;;;0.70;80.78
49709;BME280;35601;55.902;13.606;2023-01-30T06:39:23;98695.42;;;0.60;80.97
49709;BME280;35601;55.902;13.606;2023-01-30T06:41:48;98704.26;;;0.56;80.38
49709;BME280;35601;55.902;13.606;2023-01-30T06:44:13;98693.79;;;0.66;80.66
49709;BME280;35601;55.902;13.606;2023-01-30T06:46:39;98693.59;;;0.44;80.86
49709;BME280;35601;55.902;13.606;2023-01-30T06:49:04;98689.55;;;0.23;81.94
49709;BME280;35601;55.902;13.606;2023-01-30T06:51:29;98695.66;;;0.38;81.78
49709;BME280;35601;55.902;13.606;2023-01-30T06:53:55;98688.80;;;0.49;81.45
49709;BME280;35601;55.902;13.606;2023-01-30T06:56:20;98686.72;;;0.77;81.41
49709;BME280;35601;55.902;13.606;2023-01-30T06:58:45;98685.24;;;0.26;82.18
49709;BME280;35601;55.902;13.606;2023-01-30T07:01:11;98680.45;;;0.36;82.15
49709;BME280;35601;55.902;13.606;2023-01-30T07:03:36;98683.99;;;0.53;81.71
49709;BME280;35601;55.902;13.606;2023-01-30T07:06:02;98683.01;;;0.51;81.68
49709;BME280;35601;55.902;13.606;2023-01-30T07:08:27;98675.88;;;0.62;81.26
49709;BME280;35601;55.902;13.606;2023-01-30T07:10:52;98673.42;;;0.34;82.11
49709;BME280;35601;55.902;13.606;2023-01-30T07:13:18;98673.86;;;0.34;82.50
49709;BME280;35601;55.902;13.606;2023-01-30T07:15:44;98681.97;;;0.45;82.25
49709;BME280;35601;55.902;13.606;2023-01-30T07:18:09;98677.77;;;0.67;81.82
49709;BME280;35601;55.902;13.606;2023-01-30T07:20:34;98678.34;;;0.35;82.44
49709;BME280;35601;55.902;13.606;2023-01-30T07:23:00;98672.92;;;0.60;82.33
49709;BME280;35601;55.902;13.606;2023-01-30T07:25:27;98672.77;;;0.83;81.84
49709;BME280;35601;55.902;13.606;2023-01-30T07:27:53;98663.78;;;0.59;81.97
49709;BME280;35601;55.902;13.606;2023-01-30T07:30:18;98660.01;;;0.64;81.73
49709;BME280;35601;55.902;13.606;2023-01-30T07:32:43;98666.81;;;0.65;82.09
49709;BME280;35601;55.902;13.606;2023-01-30T07:35:09;98646.36;;;0.56;82.41
49709;BME280;35601;55.902;13.606;2023-01-30T07:37:34;98647.00;;;0.49;82.47
49709;BME280;35601;55.902;13.606;2023-01-30T07:39:59;98646.52;;;0.65;82.15
49709;BME280;35601;55.902;13.606;2023-01-30T07:42:24;98647.11;;;0.46;82.47
49709;BME280;35601;55.902;13.606;2023-01-30T07:44:50;98639.43;;;0.54;82.65
49709;BME280;35601;55.902;13.606;2023-01-30T07:47:16;98636.50;;;0.75;82.40
49709;BME280;35601;55.902;13.606;2023-01-30T07:49:42;98635.37;;;0.64;82.34
49709;BME280;35601;55.902;13.606;2023-01-30T07:52:07;98636.85;;;0.72;81.99
49709;BME280;35601;55.902;13.606;2023-01-30T07:54:33;98639.76;;;0.59;81.18
49709;BME280;35601;55.902;13.606;2023-01-30T07:56:58;98637.32;;;0.53;80.85
49709;BME280;35601;55.902;13.606;2023-01-30T07:59:23;98631.35;;;0.66;80.76
49709;BME280;35601;55.902;13.606;2023-01-30T08:01:49;98632.80;;;0.58;80.42
49709;BME280;35601;55.902;13.606;2023-01-30T08:04:14;98634.94;;;0.71;80.78
49709;BME280;35601;55.902;13.606;2023-01-30T08:06:40;98635.44;;;0.60;80.72
49709;BME280;35601;55.902;13.606;2023-01-30T08:09:06;98640.51;;;1.11;80.11
49709;BME280;35601;55.902;13.606;2023-01-30T08:11:31;98647.73;;;0.99;79.96
49709;BME280;35601;55.902;13.606;2023-01-30T08:13:57;98648.90;;;0.76;79.73
49709;BME280;35601;55.902;13.606;2023-01-30T08:16:22;98646.12;;;0.88;79.63
49709;BME280;35601;55.902;13.606;2023-01-30T08:18:48;98640.45;;;0.70;79.83
49709;BME280;35601;55.902;13.606;2023-01-30T08:21:13;98641.30;;;1.08;79.76
49709;BME280;35601;55.902;13.606;2023-01-30T08:23:38;98645.33;;;0.84;79.09
49709;BME280;35601;55.902;13.606;2023-01-30T08:26:04;98642.89;;;0.82;79.67
49709;BME280;35601;55.902;13.606;2023-01-30T08:28:30;98645.69;;;0.77;79.51
49709;BME280;35601;55.902;13.606;2023-01-30T08:30:56;98641.74;;;0.72;79.66
49709;BME280;35601;55.902;13.606;2023-01-30T08:33:21;98640.62;;;1.01;78.97
49709;BME280;35601;55.902;13.606;2023-01-30T08:35:47;98644.07;;;1.05;78.80
49709;BME280;35601;55.902;13.606;2023-01-30T08:38:12;98644.34;;;0.74;78.78
49709;BME280;35601;55.902;13.606;2023-01-30T08:40:37;98644.69;;;1.16;78.76
49709;BME280;35601;55.902;13.606;2023-01-30T08:43:04;98643.43;;;1.04;78.44
49709;BME280;35601;55.902;13.606;2023-01-30T08:45:28;98636.96;;;1.14;78.42
49709;BME280;35601;55.902;13.606;2023-01-30T08:47:57;98642.35;;;1.11;78.46
49709;BME280;35601;55.902;13.606;2023-01-30T08:50:19;98630.48;;;1.15;78.69
49709;BME280;35601;55.902;13.606;2023-01-30T08:52:44;98626.98;;;1.33;77.77
49709;BME280;35601;55.902;13.606;2023-01-30T08:55:09;98626.85;;;1.12;77.56
49709;BME280;35601;55.902;13.606;2023-01-30T08:57:34;98621.73;;;1.00;78.62
49709;BME280;35601;55.902;13.606;2023-01-30T09:00:00;98624.08;;;1.05;78.42
49709;BME280;35601;55.902;13.606;2023-01-30T09:02:25;98626.44;;;1.07;78.13
49709;BME280;35601;55.902;13.606;2023-01-30T09:04:50;98628.25;;;1.14;77.83
49709;BME280;35601;55.902;13.606;2023-01-30T09:07:16;98637.63;;;0.97;77.84
49709;BME280;35601;55.902;13.606;2023-01-30T09:09:41;98638.13;;;1.29;77.69
49709;BME280;35601;55.902;13.606;2023-01-30T09:12:07;98637.05;;;1.13;78.32
49709;BME280;35601;55.902;13.606;2023-01-30T09:14:32;98641.93;;;0.98;78.34
49709;BME280;35601;55.902;13.606;2023-01-30T09:16:58;98645.94;;;1.05;78.58
49709;BME280;35601;55.902;13.606;2023-01-30T09:19:24;98634.12;;;1.16;78.48
49709;BME280;35601;55.902;13.606;2023-01-30T09:21:48;98641.31;;;0.90;78.67
49709;BME280;35601;55.902;13.606;2023-01-30T09:24:14;98638.55;;;1.51;78.58
49709;BME280;35601;55.902;13.606;2023-01-30T09:26:39;98636.80;;;1.31;78.21
49709;BME280;35601;55.902;13.606;2023-01-30T09:29:04;98631.54;;;1.17;78.16
49709;BME280;35601;55.902;13.606;2023-01-30T09:31:30;98637.84;;;1.23;77.82
49709;BME280;35601;55.902;13.606;2023-01-30T09:33:55;98634.71;;;1.24;77.54
49709;BME280;35601;55.902;13.606;2023-01-30T09:36:20;98631.78;;;1.06;78.43
49709;BME280;35601;55.902;13.606;2023-01-30T09:38:46;98632.70;;;1.17;78.43
49709;BME280;35601;55.902;13.606;2023-01-30T09:41:25;98631.93;;;1.11;78.53
49709;BME280;35601;55.902;13.606;2023-01-30T09:43:48;98635.52;;;1.33;78.92
49709;BME280;35601;55.902;13.606;2023-01-30T09:46:10;98640.12;;;1.10;78.98
49709;BME280;35601;55.902;13.606;2023-01-30T09:48:30;98632.00;;;1.27;78.75
49709;BME280;35601;55.902;13.606;2023-01-30T09:51:06;98633.02;;;1.12;78.55
49709;BME280;35601;55.902;13.606;2023-01-30T09:53:24;98629.13;;;1.21;78.23
49709;BME280;35601;55.902;13.606;2023-01-30T09:55:44;98624.73;;;1.10;78.32
49709;BME280;35601;55.902;13.606;2023-01-30T09:58:16;98621.86;;;1.15;78.44
49709;BME280;35601;55.902;13.606;2023-01-30T10:00:37;98624.08;;;1.43;78.80
49709;BME280;35601;55.902;13.606;2023-01-30T10:03:08;98617.09;;;1.22;78.85
49709;BME280;35601;55.902;13.606;2023-01-30T10:05:33;98612.99;;;0.95;79.11
49709;BME280;35601;55.902;13.606;2023-01-30T10:08:02;98625.57;;;1.07;78.70
49709;BME280;35601;55.902;13.606;2023-01-30T10:10:21;98622.22;;;0.99;78.72
49709;BME280;35601;55.902;13.606;2023-01-30T10:12:48;98629.87;;;0.88;79.61
49709;BME280;35601;55.902;13.606;2023-01-30T10:15:21;98628.03;;;1.44;79.04
49709;BME280;35601;55.902;13.606;2023-01-30T10:17:42;98624.60;;;1.35;78.86
49709;BME280;35601;55.902;13.606;2023-01-30T10:20:13;98620.49;;;1.16;78.59
49709;BME280;35601;55.902;13.606;2023-01-30T10:22:34;98620.66;;;1.51;78.66
49709;BME280;35601;55.902;13.606;2023-01-30T10:24:57;98617.62;;;1.46;79.13
49709;BME280;35601;55.902;13.606;2023-01-30T10:27:15;98620.56;;;1.12;79.62
49709;BME280;35601;55.902;13.606;2023-01-30T10:29:41;98617.59;;;0.89;80.18
49709;BME280;35601;55.902;13.606;2023-01-30T10:32:09;98617.70;;;1.14;80.38
49709;BME280;35601;55.902;13.606;2023-01-30T10:34:32;98610.03;;;1.50;80.62
49709;BME280;35601;55.902;13.606;2023-01-30T10:36:58;98610.52;;;1.37;81.42
49709;BME280;35601;55.902;13.606;2023-01-30T10:39:26;98607.17;;;0.91;82.49
49709;BME280;35601;55.902;13.606;2023-01-30T10:41:53;98597.88;;;1.26;83.25
49709;BME280;35601;55.902;13.606;2023-01-30T10:44:12;98601.06;;;0.99;83.80
49709;BME280;35601;55.902;13.606;2023-01-30T10:46:56;98597.05;;;1.01;84.50
49709;BME280;35601;55.902;13.606;2023-01-30T10:49:05;98592.01;;;0.94;85.77
49709;BME280;35601;55.902;13.606;2023-01-30T10:51:37;98597.65;;;1.03;86.17
49709;BME280;35601;55.902;13.606;2023-01-30T10:53:56;98595.00;;;0.89;86.19
49709;BME280;35601;55.902;13.606;2023-01-30T10:56:21;98603.58;;;0.93;86.38
49709;BME280;35601;55.902;13.606;2023-01-30T10:58:50;98606.67;;;1.05;85.97
49709;BME280;35601;55.902;13.606;2023-01-30T11:01:13;98605.59;;;1.25;84.26
49709;BME280;35601;55.902;13.606;2023-01-30T11:03:38;98602.67;;;1.19;83.21
49709;BME280;35601;55.902;13.606;2023-01-30T11:06:01;98603.20;;;1.18;84.10
49709;BME280;35601;55.902;13.606;2023-01-30T11:08:26;98604.93;;;1.44;82.84
49709;BME280;35601;55.902;13.606;2023-01-30T11:10:52;98598.82;;;1.56;81.60
49709;BME280;35601;55.902;13.606;2023-01-30T11:13:18;98594.33;;;1.55;80.54
49709;BME280;35601;55.902;13.606;2023-01-30T11:15:43;98591.17;;;1.58;80.08
49709;BME280;35601;55.902;13.606;2023-01-30T11:18:07;98598.16;;;1.84;79.81
49709;BME280;35601;55.902;13.606;2023-01-30T11:20:38;98590.04;;;1.66;79.46
49709;BME280;35601;55.902;13.606;2023-01-30T11:23:04;98587.55;;;1.47;78.45
49709;BME280;35601;55.902;13.606;2023-01-30T11:25:23;98584.49;;;2.12;79.01
49709;BME280;35601;55.902;13.606;2023-01-30T11:27:53;98583.53;;;1.86;80.04
49709;BME280;35601;55.902;13.606;2023-01-30T11:30:14;98584.05;;;1.83;78.02
49709;BME280;35601;55.902;13.606;2023-01-30T11:32:42;98581.04;;;2.06;76.94
49709;BME280;35601;55.902;13.606;2023-01-30T11:37:32;98573.65;;;2.30;76.49
49709;BME280;35601;55.902;13.606;2023-01-30T11:39:55;98566.57;;;1.86;76.18
49709;BME280;35601;55.902;13.606;2023-01-30T11:42:24;98558.08;;;1.98;76.76
49709;BME280;35601;55.902;13.606;2023-01-30T11:44:54;98545.04;;;1.81;76.59
49709;BME280;35601;55.902;13.606;2023-01-30T11:47:19;98534.42;;;1.66;76.16
49709;BME280;35601;55.902;13.606;2023-01-30T11:49:42;98531.49;;;1.37;76.91
49709;BME280;35601;55.902;13.606;2023-01-30T11:52:03;98535.24;;;1.82;77.58
49709;BME280;35601;55.902;13.606;2023-01-30T11:54:30;98526.90;;;1.72;77.29
49709;BME280;35601;55.902;13.606;2023-01-30T11:56:55;98525.73;;;1.99;77.50
49709;BME280;35601;55.902;13.606;2023-01-30T11:59:23;98532.54;;;1.62;77.24
49709;BME280;35601;55.902;13.606;2023-01-30T12:01:44;98527.18;;;2.05;77.35
49709;BME280;35601;55.902;13.606;2023-01-30T12:04:11;98540.53;;;2.00;77.13
49709;BME280;35601;55.902;13.606;2023-01-30T12:06:37;98535.09;;;2.18;76.50
49709;BME280;35601;55.902;13.606;2023-01-30T12:09:02;98544.22;;;1.90;76.37
49709;BME280;35601;55.902;13.606;2023-01-30T12:11:29;98542.85;;;1.87;77.33
49709;BME280;35601;55.902;13.606;2023-01-30T12:13:53;98534.90;;;2.06;76.52
49709;BME280;35601;55.902;13.606;2023-01-30T12:16:19;98527.17;;;2.26;76.09
49709;BME280;35601;55.902;13.606;2023-01-30T12:18:49;98527.03;;;2.12;75.86
49709;BME280;35601;55.902;13.606;2023-01-30T12:21:14;98520.34;;;1.72;75.53
49709;BME280;35601;55.902;13.606;2023-01-30T12:23:37;98517.11;;;2.26;75.88
49709;BME280;35601;55.902;13.606;2023-01-30T12:26:03;98521.91;;;2.12;75.23
49709;BME280;35601;55.902;13.606;2023-01-30T12:28:30;98525.19;;;1.96;74.63
49709;BME280;35601;55.902;13.606;2023-01-30T12:30:52;98522.98;;;2.03;75.21
49709;BME280;35601;55.902;13.606;2023-01-30T12:33:14;98524.06;;;1.79;75.26
49709;BME280;35601;55.902;13.606;2023-01-30T12:35:52;98527.04;;;1.69;74.57
49709;BME280;35601;55.902;13.606;2023-01-30T12:38:12;98533.33;;;2.28;75.42
49709;BME280;35601;55.902;13.606;2023-01-30T12:40:40;98534.32;;;1.87;74.41
49709;BME280;35601;55.902;13.606;2023-01-30T12:43:13;98536.00;;;2.09;74.26
49709;BME280;35601;55.902;13.606;2023-01-30T12:45:22;98538.93;;;1.88;74.73
49709;BME280;35601;55.902;13.606;2023-01-30T12:47:56;98544.78;;;2.33;74.83
49709;BME280;35601;55.902;13.606;2023-01-30T12:50:21;98556.10;;;2.00;75.30
49709;BME280;35601;55.902;13.606;2023-01-30T12:52:50;98559.89;;;1.58;74.95
49709;BME280;35601;55.902;13.606;2023-01-30T12:55:13;98563.92;;;1.64;75.36
49709;BME280;35601;55.902;13.606;2023-01-30T12:57:31;98562.06;;;1.63;75.32
49709;BME280;35601;55.902;13.606;2023-01-30T13:00:01;98561.57;;;1.54;75.35